createdAt,value
2018-11-07T00:00:42.315Z,9.68
2018-11-07T00:03:12.863Z,9.38
2018-11-07T00:05:43.782Z,8.93
2018-11-07T00:08:14.608Z,9.15
2018-11-07T00:10:45.580Z,9.03
2018-11-07T00:13:16.131Z,8.05
2018-11-07T00:15:46.728Z,8.63
2018-11-07T00:18:17.284Z,8.58
2018-11-07T00:20:47.866Z,8.55
2018-11-07T00:23:18.443Z,8.95
2018-11-07T00:25:49.034Z,7.60
2018-11-07T00:28:19.938Z,8.35
2018-11-07T00:30:50.527Z,8.98
2018-11-07T00:33:21.112Z,8.30
2018-11-07T00:35:51.695Z,8.60
2018-11-07T00:38:22.260Z,8.80
2018-11-07T00:40:53.060Z,8.20
2018-11-07T00:43:23.611Z,7.20
2018-11-07T00:45:54.232Z,9.10
2018-11-07T00:48:24.778Z,8.60
2018-11-07T00:50:55.375Z,8.30
2018-11-07T00:53:25.932Z,8.45
2018-11-07T00:55:56.482Z,9.05
2018-11-07T00:58:27.271Z,8.78
2018-11-07T01:00:57.855Z,8.18
2018-11-07T01:03:28.627Z,8.83
2018-11-07T01:05:59.210Z,8.33
2018-11-07T01:08:29.798Z,8.28
2018-11-07T01:11:00.370Z,6.83
2018-11-07T01:13:30.939Z,7.85
2018-11-07T01:16:01.523Z,8.75
2018-11-07T01:18:32.120Z,8.90
2018-11-07T01:21:02.683Z,8.05
2018-11-07T01:23:33.465Z,8.05
2018-11-07T01:26:04.359Z,8.25
2018-11-07T01:28:34.963Z,8.23
2018-11-07T01:31:06.108Z,7.20
2018-11-07T01:33:36.687Z,7.90
2018-11-07T01:36:07.434Z,8.03
2018-11-07T01:38:38.003Z,7.85
2018-11-07T01:41:08.901Z,7.40
2018-11-07T01:43:39.831Z,7.90
2018-11-07T01:46:10.354Z,7.15
2018-11-07T01:48:41.064Z,7.80
2018-11-07T01:51:11.625Z,7.15
2018-11-07T01:53:42.208Z,7.28
2018-11-07T01:56:13.007Z,6.78
2018-11-07T01:58:43.769Z,8.10
2018-11-07T02:01:14.544Z,7.45
2018-11-07T02:03:45.093Z,7.15
2018-11-07T02:06:15.679Z,7.33
2018-11-07T02:08:46.247Z,7.25
2018-11-07T02:11:16.837Z,6.45
2018-11-07T02:13:47.383Z,6.78
2018-11-07T02:16:17.978Z,7.33
2018-11-07T02:18:48.511Z,6.90
2018-11-07T02:21:19.071Z,6.55
2018-11-07T02:23:49.620Z,7.30
2018-11-07T02:26:20.405Z,6.65
2018-11-07T02:28:51.172Z,6.55
2018-11-07T02:31:21.745Z,6.12
2018-11-07T02:33:52.303Z,7.33
2018-11-07T02:36:22.874Z,6.00
2018-11-07T02:38:53.640Z,6.37
2018-11-07T02:41:24.418Z,6.25
2018-11-07T02:43:55.188Z,6.22
2018-11-07T02:46:26.094Z,6.25
2018-11-07T02:48:56.651Z,6.12
2018-11-07T02:51:27.499Z,6.00
2018-11-07T02:53:58.568Z,6.75
2018-11-07T02:56:29.990Z,5.78
2018-11-07T02:59:00.568Z,6.12
2018-11-07T03:01:31.669Z,5.92
2018-11-07T03:04:02.436Z,6.53
2018-11-07T03:06:32.980Z,6.60
2018-11-07T03:09:05.648Z,6.60
2018-11-07T03:11:36.211Z,5.80
2018-11-07T03:14:07.845Z,6.22
2018-11-07T03:16:38.650Z,6.12
2018-11-07T03:19:09.233Z,6.90
2018-11-07T03:21:39.964Z,6.10
2018-11-07T03:24:10.745Z,6.03
2018-11-07T03:26:41.495Z,7.05
2018-11-07T03:29:12.072Z,6.50
2018-11-07T03:31:42.624Z,6.45
2018-11-07T03:34:13.224Z,6.60
2018-11-07T03:36:43.971Z,6.50
2018-11-07T03:39:14.555Z,6.92
2018-11-07T03:41:45.446Z,6.85
2018-11-07T03:44:16.012Z,6.12
2018-11-07T03:46:46.752Z,6.42
2018-11-07T03:49:17.316Z,6.75
2018-11-07T03:51:47.895Z,6.85
2018-11-07T03:54:18.460Z,6.90
2018-11-07T03:56:49.023Z,6.28
2018-11-07T03:59:19.596Z,7.05
2018-11-07T04:01:50.188Z,7.10
2018-11-07T04:04:20.926Z,6.62
2018-11-07T04:06:51.504Z,6.87
2018-11-07T04:09:22.068Z,6.33
2018-11-07T04:11:52.600Z,6.03
2018-11-07T04:14:23.368Z,6.55
2018-11-07T04:16:53.908Z,6.30
2018-11-07T04:19:24.479Z,6.12
2018-11-07T04:21:55.243Z,6.33
2018-11-07T04:24:25.822Z,5.85
2018-11-07T04:26:56.592Z,5.42
2018-11-07T04:29:27.366Z,6.10
2018-11-07T04:31:57.947Z,6.10
2018-11-07T04:34:28.509Z,6.15
2018-11-07T04:36:59.076Z,5.15
2018-11-07T04:39:29.629Z,5.87
2018-11-07T04:42:00.196Z,5.72
2018-11-07T04:44:30.932Z,4.75
2018-11-07T04:47:01.543Z,5.55
2018-11-07T04:49:32.092Z,5.17
2018-11-07T04:52:03.559Z,5.62
2018-11-07T04:54:34.436Z,5.15
2018-11-07T04:57:05.694Z,6.00
2018-11-07T04:59:36.316Z,5.40
2018-11-07T05:02:06.857Z,5.70
2018-11-07T05:04:37.695Z,5.05
2018-11-07T05:07:08.271Z,5.15
2018-11-07T05:09:39.005Z,5.15
2018-11-07T05:12:09.596Z,6.15
2018-11-07T05:14:40.214Z,5.40
2018-11-07T05:17:10.963Z,5.30
2018-11-07T05:19:41.796Z,5.15
2018-11-07T05:22:12.527Z,5.33
2018-11-07T05:24:43.096Z,5.53
2018-11-07T05:27:13.681Z,4.62
2018-11-07T05:29:44.243Z,4.72
2018-11-07T05:32:14.788Z,4.35
2018-11-07T05:34:45.517Z,4.42
2018-11-07T05:37:16.064Z,4.08
2018-11-07T05:39:46.638Z,4.62
2018-11-07T05:42:17.192Z,4.12
2018-11-07T05:44:47.948Z,4.28
2018-11-07T05:47:18.671Z,4.28
2018-11-07T05:49:49.263Z,3.87
2018-11-07T05:52:19.799Z,4.10
2018-11-07T05:54:50.364Z,4.03
2018-11-07T05:57:20.912Z,4.28
2018-11-07T05:59:51.519Z,3.95
2018-11-07T06:02:22.056Z,3.92
2018-11-07T06:04:52.631Z,4.40
2018-11-07T06:07:23.163Z,3.92
2018-11-07T06:09:53.729Z,4.20
2018-11-07T06:12:24.287Z,3.85
2018-11-07T06:14:54.850Z,3.42
2018-11-07T06:17:25.413Z,3.85
2018-11-07T06:20:02.315Z,4.17
2018-11-07T06:22:33.054Z,4.50
2018-11-07T06:25:03.889Z,4.20
2018-11-07T06:27:34.921Z,4.05
2018-11-07T06:30:09.272Z,4.62
2018-11-07T06:32:39.844Z,3.87
2018-11-07T06:35:11.255Z,3.90
2018-11-07T06:37:40.904Z,3.58
2018-11-07T06:40:12.323Z,3.58
2018-11-07T06:42:42.913Z,3.20
2018-11-07T06:45:13.654Z,3.47
2018-11-07T06:47:44.227Z,2.83
2018-11-07T06:50:15.677Z,3.08
2018-11-07T06:52:46.231Z,3.30
2018-11-07T06:55:16.828Z,3.30
2018-11-07T06:57:47.577Z,2.80
2018-11-07T07:00:18.497Z,2.92
2018-11-07T07:02:49.285Z,3.08
2018-11-07T07:05:19.827Z,3.50
2018-11-07T07:07:51.134Z,3.17
2018-11-07T07:10:21.839Z,2.90
2018-11-07T07:12:52.533Z,3.42
2018-11-07T07:15:23.219Z,3.40
2018-11-07T07:17:55.305Z,3.35
2018-11-07T07:20:27.314Z,2.85
2018-11-07T07:22:57.868Z,2.95
2018-11-07T07:25:28.477Z,3.08
2018-11-07T07:27:59.200Z,3.12
2018-11-07T07:30:29.835Z,3.00
2018-11-07T07:33:00.533Z,2.55
2018-11-07T07:35:31.287Z,2.72
2018-11-07T07:38:01.825Z,2.75
2018-11-07T07:40:32.591Z,2.50
2018-11-07T07:43:03.175Z,2.62
2018-11-07T07:45:33.801Z,2.77
2018-11-07T07:48:04.693Z,2.62
2018-11-07T07:50:35.455Z,2.67
2018-11-07T07:53:06.097Z,3.00
2018-11-07T07:55:36.771Z,2.60
2018-11-07T07:58:07.689Z,2.25
2018-11-07T08:00:38.268Z,2.55
2018-11-07T08:03:09.026Z,2.62
2018-11-07T08:05:39.582Z,2.62
2018-11-07T08:08:10.181Z,2.95
2018-11-07T08:10:41.080Z,2.75
2018-11-07T08:13:11.623Z,2.50
2018-11-07T08:15:42.233Z,2.67
2018-11-07T08:18:12.796Z,2.27
2018-11-07T08:20:43.373Z,2.58
2018-11-07T08:23:13.924Z,2.92
2018-11-07T08:25:44.495Z,2.90
2018-11-07T08:28:15.040Z,2.40
2018-11-07T08:30:45.683Z,2.75
2018-11-07T08:33:16.379Z,2.33
2018-11-07T08:35:47.139Z,2.90
2018-11-07T08:38:17.715Z,2.87
2018-11-07T08:40:48.506Z,2.30
2018-11-07T08:43:19.043Z,2.40
2018-11-07T08:45:49.612Z,2.33
2018-11-07T08:48:20.257Z,2.83
2018-11-07T08:50:50.936Z,2.58
2018-11-07T08:53:21.691Z,2.40
2018-11-07T08:55:52.237Z,2.40
2018-11-07T08:58:22.798Z,2.50
2018-11-07T09:00:53.709Z,2.30
2018-11-07T09:03:24.264Z,2.20
2018-11-07T09:05:54.824Z,2.45
2018-11-07T09:08:25.383Z,2.05
2018-11-07T09:10:56.246Z,2.70
2018-11-07T09:13:26.826Z,2.30
2018-11-07T09:15:57.359Z,1.90
2018-11-07T09:18:27.928Z,2.33
2018-11-07T09:20:58.471Z,2.12
2018-11-07T09:23:29.036Z,1.77
2018-11-07T09:25:59.622Z,2.40
2018-11-07T09:28:30.155Z,2.55
2018-11-07T09:31:00.733Z,1.98
2018-11-07T09:33:31.275Z,1.98
2018-11-07T09:36:01.852Z,2.50
2018-11-07T09:38:32.383Z,2.40
2018-11-07T09:41:02.973Z,2.50
2018-11-07T09:43:33.723Z,2.20
2018-11-07T09:46:04.503Z,2.02
2018-11-07T09:48:35.069Z,2.12
2018-11-07T09:51:06.412Z,2.17
2018-11-07T09:53:36.997Z,2.60
2018-11-07T09:56:07.780Z,2.42
2018-11-07T09:58:38.374Z,2.80
2018-11-07T10:01:09.126Z,2.50
2018-11-07T10:03:39.687Z,1.80
2018-11-07T10:06:10.255Z,1.87
2018-11-07T10:08:40.992Z,2.45
2018-11-07T10:11:11.559Z,2.15
2018-11-07T10:13:42.151Z,2.35
2018-11-07T10:16:12.919Z,2.17
2018-11-07T10:18:43.464Z,2.00
2018-11-07T10:21:14.025Z,2.90
2018-11-07T10:23:44.570Z,1.57
2018-11-07T10:26:15.150Z,1.30
2018-11-07T10:28:46.010Z,0.98
2018-11-07T10:34:30.104Z,1.10
2018-11-07T10:37:00.811Z,1.15
2018-11-07T10:39:31.547Z,0.80
2018-11-07T10:42:02.131Z,1.00
2018-11-07T10:44:32.730Z,0.80
2018-11-07T10:47:03.768Z,0.85
2018-11-07T10:49:34.326Z,1.00
2018-11-07T10:52:05.613Z,0.95
2018-11-07T10:54:36.199Z,0.98
2018-11-07T10:57:06.754Z,0.60
2018-11-07T10:59:37.361Z,0.80
2018-11-07T11:02:13.520Z,0.90
2018-11-07T11:04:44.064Z,0.80
2018-11-07T11:07:14.599Z,0.70
2018-11-07T11:09:45.170Z,0.50
2018-11-07T11:12:15.705Z,0.80
2018-11-07T11:14:46.254Z,0.85
2018-11-07T11:17:17.011Z,0.70
2018-11-07T11:19:47.773Z,0.70
2018-11-07T11:22:18.297Z,1.40
2018-11-07T11:24:49.069Z,1.35
2018-11-07T11:27:19.723Z,1.22
2018-11-07T11:29:50.371Z,1.40
2018-11-07T11:32:20.952Z,1.72
2018-11-07T11:34:51.609Z,1.55
2018-11-07T11:37:22.279Z,1.50
2018-11-07T11:39:52.826Z,1.60
2018-11-07T11:42:23.416Z,1.85
2018-11-07T11:44:53.968Z,1.37
2018-11-07T11:47:24.536Z,1.20
2018-11-07T11:49:55.097Z,1.10
2018-11-07T11:52:26.292Z,0.70
2018-11-07T11:54:56.867Z,0.88
2018-11-07T11:57:27.752Z,0.95
2018-11-07T11:59:58.533Z,0.60
2018-11-07T12:02:29.404Z,0.70
2018-11-07T12:04:59.952Z,0.80
2018-11-07T12:07:30.508Z,1.10
2018-11-07T12:10:01.108Z,1.02
2018-11-07T12:12:31.633Z,0.80
2018-11-07T12:15:02.226Z,0.85
2018-11-07T12:17:32.985Z,1.17
2018-11-07T12:20:03.772Z,1.05
2018-11-07T12:22:34.325Z,0.85
2018-11-07T12:25:06.189Z,1.15
2018-11-07T12:27:36.742Z,0.90
2018-11-07T12:30:10.788Z,1.00
2018-11-07T12:32:42.155Z,1.05
2018-11-07T12:35:13.391Z,1.90
2018-11-07T12:37:44.042Z,0.90
2018-11-07T12:40:15.315Z,0.90
2018-11-07T12:42:46.164Z,1.12
2018-11-07T12:45:17.908Z,1.40
2018-11-07T12:47:48.667Z,1.30
2018-11-07T12:50:20.932Z,1.10
2018-11-07T12:52:52.003Z,1.37
2018-11-07T12:55:23.115Z,1.10
2018-11-07T12:58:00.355Z,1.50
2018-11-07T13:00:31.024Z,1.17
2018-11-07T13:03:01.695Z,1.37
2018-11-07T13:05:32.356Z,1.30
2018-11-07T13:08:03.276Z,1.00
2018-11-07T13:10:34.185Z,1.65
2018-11-07T13:13:04.791Z,1.15
2018-11-07T13:15:35.515Z,1.30
2018-11-07T13:18:06.704Z,1.32
2018-11-07T13:20:37.272Z,1.22
2018-11-07T13:23:07.853Z,1.70
2018-11-07T13:25:38.402Z,1.52
2018-11-07T13:28:08.988Z,1.37
2018-11-07T13:30:39.732Z,1.30
2018-11-07T13:33:10.309Z,1.50
2018-11-07T13:35:41.060Z,1.10
2018-11-07T13:38:11.785Z,1.30
2018-11-07T13:40:42.377Z,1.37
2018-11-07T13:43:13.152Z,1.22
2018-11-07T13:45:43.895Z,1.27
2018-11-07T13:48:14.646Z,1.50
2018-11-07T13:50:45.192Z,1.30
2018-11-07T13:53:15.809Z,1.50
2018-11-07T13:55:46.496Z,1.07
2018-11-07T13:58:17.084Z,1.22
2018-11-07T14:00:47.634Z,1.67
2018-11-07T14:03:18.210Z,1.25
2018-11-07T14:05:49.142Z,1.10
2018-11-07T14:08:19.704Z,1.10
2018-11-07T14:10:50.621Z,1.40
2018-11-07T14:13:21.180Z,1.10
2018-11-07T14:15:52.344Z,1.32
2018-11-07T14:18:23.367Z,1.47
2018-11-07T14:20:53.922Z,1.50
2018-11-07T14:23:24.468Z,0.98
2018-11-07T14:25:55.371Z,1.17
2018-11-07T14:28:26.019Z,0.90
2018-11-07T14:30:56.756Z,1.22
2018-11-07T14:33:27.313Z,1.27
2018-11-07T14:35:58.073Z,0.93
2018-11-07T14:38:28.864Z,1.12
2018-11-07T14:40:59.608Z,1.27
2018-11-07T14:43:30.169Z,0.90
2018-11-07T14:46:00.778Z,1.02
2018-11-07T14:48:31.519Z,0.90
2018-11-07T14:51:02.060Z,1.27
2018-11-07T14:53:32.679Z,1.10
2018-11-07T14:56:03.758Z,1.32
2018-11-07T14:58:34.300Z,1.20
2018-11-07T15:01:04.910Z,1.27
2018-11-07T15:03:35.675Z,1.50
2018-11-07T15:06:06.384Z,1.35
2018-11-07T15:08:37.231Z,1.40
2018-11-07T15:11:07.841Z,1.15
2018-11-07T15:13:38.606Z,1.22
2018-11-07T15:16:09.159Z,1.12
2018-11-07T15:18:39.923Z,1.27
2018-11-07T15:21:10.500Z,1.40
2018-11-07T15:23:41.200Z,1.12
2018-11-07T15:26:11.748Z,1.20
2018-11-07T15:28:42.652Z,1.25
2018-11-07T15:31:13.206Z,1.20
2018-11-07T15:33:43.763Z,1.37
2018-11-07T15:36:14.885Z,1.35
2018-11-07T15:38:45.436Z,1.07
2018-11-07T15:41:16.044Z,1.10
2018-11-07T15:43:47.308Z,1.30
2018-11-07T15:46:18.064Z,1.20
2018-11-07T15:48:48.640Z,1.12
2018-11-07T15:51:37.086Z,1.05
2018-11-07T15:54:08.395Z,1.22
2018-11-07T15:56:39.330Z,1.37
2018-11-07T15:59:09.899Z,1.00
2018-11-07T16:01:40.483Z,1.00
2018-11-07T16:04:11.042Z,0.98
2018-11-07T16:06:41.616Z,1.05
2018-11-07T16:09:12.298Z,1.00
2018-11-07T16:11:43.043Z,0.90
2018-11-07T16:14:13.895Z,2.50
2018-11-07T16:16:44.697Z,1.90
2018-11-07T16:19:15.447Z,2.20
2018-11-07T16:21:46.240Z,1.70
2018-11-07T16:24:16.813Z,1.80
2018-11-07T16:26:47.379Z,1.55
2018-11-07T16:29:18.144Z,1.60
2018-11-07T16:31:48.718Z,1.67
2018-11-07T16:34:19.471Z,1.40
2018-11-07T16:36:50.041Z,1.42
2018-11-07T16:39:20.776Z,1.60
2018-11-07T16:41:51.717Z,1.77
2018-11-07T16:44:22.278Z,1.52
2018-11-07T16:46:52.871Z,1.47
2018-11-07T16:49:23.584Z,1.32
2018-11-07T16:51:54.117Z,1.10
2018-11-07T16:54:24.690Z,1.10
2018-11-07T16:56:55.441Z,1.12
2018-11-07T16:59:26.363Z,1.20
2018-11-07T17:01:57.100Z,1.10
2018-11-07T17:04:27.719Z,1.37
2018-11-07T17:06:58.458Z,1.00
2018-11-07T17:09:29.168Z,1.32
2018-11-07T17:11:59.727Z,1.00
2018-11-07T17:14:30.271Z,1.20
2018-11-07T17:17:00.848Z,1.10
2018-11-07T17:19:31.376Z,0.88
2018-11-07T17:22:01.968Z,1.15
2018-11-07T17:24:32.810Z,1.20
2018-11-07T17:27:03.438Z,1.20
2018-11-07T17:29:34.159Z,2.50
2018-11-07T17:32:05.331Z,1.22
2018-11-07T17:34:36.004Z,1.40
2018-11-07T17:37:06.766Z,1.60
2018-11-07T17:39:37.494Z,1.02
2018-11-07T17:42:08.390Z,1.20
2018-11-07T17:44:39.187Z,1.30
2018-11-07T17:47:09.739Z,1.50
2018-11-07T17:49:40.270Z,1.40
2018-11-07T17:52:11.391Z,1.35
2018-11-07T17:54:41.948Z,1.27
2018-11-07T17:57:12.517Z,1.05
2018-11-07T17:59:43.095Z,1.20
2018-11-07T18:02:13.659Z,1.02
2018-11-07T18:04:44.234Z,1.42
2018-11-07T18:07:14.801Z,0.98
2018-11-07T18:09:45.568Z,1.25
2018-11-07T18:12:16.344Z,1.30
2018-11-07T18:14:47.083Z,1.20
2018-11-07T18:17:17.684Z,1.10
2018-11-07T18:19:48.216Z,1.00
2018-11-07T18:22:18.773Z,1.07
2018-11-07T18:24:49.363Z,1.37
2018-11-07T18:27:19.996Z,1.10
2018-11-07T18:29:50.679Z,1.10
2018-11-07T18:32:21.233Z,1.15
2018-11-07T18:34:51.799Z,1.10
2018-11-07T18:37:22.543Z,1.30
2018-11-07T18:39:53.120Z,1.35
2018-11-07T18:42:23.657Z,1.00
2018-11-07T18:44:54.431Z,1.27
2018-11-07T18:47:24.963Z,1.30
2018-11-07T18:49:55.780Z,1.15
2018-11-07T18:52:26.513Z,1.10
2018-11-07T18:54:57.072Z,1.37
2018-11-07T18:57:27.639Z,1.10
2018-11-07T18:59:58.227Z,0.95
2018-11-07T19:02:28.759Z,1.30
2018-11-07T19:04:59.302Z,1.50
2018-11-07T19:07:29.852Z,1.35
2018-11-07T19:10:00.419Z,1.40
2018-11-07T19:12:30.998Z,1.22
2018-11-07T19:15:01.720Z,1.50
2018-11-07T19:17:32.263Z,1.05
2018-11-07T19:20:03.389Z,1.50
2018-11-07T19:22:33.944Z,1.27
2018-11-07T19:25:05.367Z,1.20
2018-11-07T19:27:36.243Z,1.20
2018-11-07T19:30:10.232Z,1.50
2018-11-07T19:32:40.915Z,1.40
2018-11-07T19:35:12.755Z,1.40
2018-11-07T19:37:43.936Z,1.60
2018-11-07T19:40:20.324Z,1.20
2018-11-07T19:42:52.314Z,1.15
2018-11-07T19:45:23.624Z,1.30
2018-11-07T19:47:54.911Z,1.15
2018-11-07T19:50:27.159Z,1.50
2018-11-07T19:52:57.736Z,1.30
2018-11-07T19:55:28.303Z,1.25
2018-11-07T19:58:01.139Z,1.50
2018-11-07T20:00:31.876Z,1.05
2018-11-07T20:03:02.456Z,1.20
2018-11-07T20:05:33.011Z,1.37
2018-11-07T20:08:03.588Z,1.50
2018-11-07T20:10:34.127Z,1.30
2018-11-07T20:13:05.466Z,1.60
2018-11-07T20:15:36.001Z,1.60
2018-11-07T20:18:07.090Z,1.60
2018-11-07T20:20:37.959Z,1.17
2018-11-07T20:23:08.575Z,1.25
2018-11-07T20:25:39.302Z,1.40
2018-11-07T20:28:09.826Z,1.32
2018-11-07T20:30:40.393Z,1.05
2018-11-07T20:33:10.955Z,1.25
2018-11-07T20:35:41.792Z,1.32
2018-11-07T20:38:12.439Z,1.30
2018-11-07T20:40:43.360Z,1.30
2018-11-07T20:43:13.896Z,1.52
2018-11-07T20:45:44.461Z,1.60
2018-11-07T20:48:15.204Z,1.60
2018-11-07T20:50:45.943Z,2.17
2018-11-07T20:53:16.499Z,2.60
2018-11-07T20:55:47.077Z,2.00
2018-11-07T20:58:17.670Z,2.05
2018-11-07T21:00:48.226Z,2.02
2018-11-07T21:03:18.791Z,1.60
2018-11-07T21:05:49.354Z,1.70
2018-11-07T21:08:19.949Z,1.47
2018-11-07T21:10:50.485Z,1.05
2018-11-07T21:13:21.042Z,1.40
2018-11-07T21:15:51.604Z,1.10
2018-11-07T21:18:22.141Z,1.10
2018-11-07T21:20:52.682Z,1.20
2018-11-07T21:23:23.240Z,1.60
2018-11-07T21:25:53.818Z,1.17
2018-11-07T21:28:24.355Z,1.12
2018-11-07T21:30:54.963Z,1.10
2018-11-07T21:33:25.664Z,1.40
2018-11-07T21:35:56.267Z,1.55
2018-11-07T21:38:26.983Z,1.87
2018-11-07T21:40:57.560Z,2.02
2018-11-07T21:43:28.110Z,1.52
2018-11-07T21:45:58.668Z,1.65
2018-11-07T21:48:29.217Z,1.25
2018-11-07T21:50:59.964Z,1.25
2018-11-07T21:53:30.490Z,1.30
2018-11-07T21:56:01.047Z,1.65
2018-11-07T21:58:31.639Z,1.40
2018-11-07T22:01:02.223Z,1.82
2018-11-07T22:03:32.963Z,1.87
2018-11-07T22:06:03.551Z,2.72
2018-11-07T22:08:34.140Z,2.10
2018-11-07T22:11:04.902Z,2.27
2018-11-07T22:13:35.450Z,1.90
2018-11-07T22:16:06.400Z,1.85
2018-11-07T22:18:37.179Z,1.90
2018-11-07T22:21:07.743Z,1.70
2018-11-07T22:23:38.512Z,1.90
2018-11-07T22:26:09.283Z,1.75
2018-11-07T22:28:39.820Z,2.92
2018-11-07T22:31:10.408Z,2.02
2018-11-07T22:33:40.944Z,1.80
2018-11-07T22:36:11.501Z,1.47
2018-11-07T22:38:42.143Z,1.40
2018-11-07T22:41:12.698Z,1.35
2018-11-07T22:43:43.287Z,1.60
2018-11-07T22:46:13.959Z,1.40
2018-11-07T22:48:44.625Z,1.25
2018-11-07T22:51:21.905Z,1.50
2018-11-07T22:53:52.472Z,1.60
2018-11-07T22:56:23.084Z,1.27
2018-11-07T22:58:53.634Z,1.60
2018-11-07T23:01:28.440Z,1.60
2018-11-07T23:03:58.978Z,1.45
2018-11-07T23:06:29.555Z,1.40
2018-11-07T23:09:00.096Z,1.77
2018-11-07T23:11:30.696Z,8.98
2018-11-07T23:14:01.333Z,6.75
2018-11-07T23:16:31.891Z,3.80
2018-11-07T23:19:02.534Z,3.20
2018-11-07T23:21:33.284Z,2.90
2018-11-07T23:24:04.029Z,2.12
2018-11-07T23:26:34.615Z,1.80
2018-11-07T23:29:05.767Z,1.98
2018-11-07T23:31:36.665Z,1.90
2018-11-07T23:34:07.202Z,1.80
2018-11-07T23:36:37.983Z,1.40
2018-11-07T23:39:10.174Z,1.70
2018-11-07T23:41:40.771Z,1.57
2018-11-07T23:44:11.535Z,1.80
2018-11-07T23:46:42.110Z,1.45
2018-11-07T23:49:13.140Z,1.62
2018-11-07T23:51:49.198Z,1.85
2018-11-07T23:54:21.234Z,1.60
2018-11-07T23:56:52.100Z,1.77
2018-11-07T23:59:22.689Z,1.77
